Time;durP1;ratioP1;P1;durP2;ratioP2;P2;SDS_P1;SDS_P2;PMS_P1;PMS_P2;Temp;Humidity;BMP_temperature;BMP_pressure;BME280_temperature;BME280_humidity;BME280_pressure;Samples;Min_cycle;Max_cycle;Signal;HPM_P1;HPM_P2
2023/10/15 00:00:24;;;;;;;6.63;3.53;;;10.20;99.90;;;;;;4985208;28;20055;-42
2023/10/15 00:02:52;;;;;;;12.73;3.42;;;10.10;99.90;;;;;;4982166;28;20357;-40
2023/10/15 00:05:22;;;;;;;7.03;3.60;;;10.10;99.90;;;;;;4981170;28;20055;-41
2023/10/15 00:07:51;;;;;;;7.43;3.40;;;10.10;99.90;;;;;;4968338;28;20093;-41
2023/10/15 00:10:25;;;;;;;7.00;3.40;;;10.10;99.90;;;;;;4978589;28;20054;-40
2023/10/15 00:12:56;;;;;;;10.18;3.72;;;10.10;99.90;;;;;;4985459;28;20054;-41
2023/10/15 00:15:27;;;;;;;4.95;3.40;;;10.00;99.90;;;;;;4984333;28;20110;-40
2023/10/15 00:17:59;;;;;;;10.60;3.53;;;10.00;99.90;;;;;;4977517;28;20062;-40
2023/10/15 00:20:40;;;;;;;7.85;3.47;;;9.90;99.90;;;;;;4985901;28;20078;-40
2023/10/15 00:23:09;;;;;;;8.63;3.83;;;9.90;99.90;;;;;;4977608;28;20511;-41
2023/10/15 00:25:41;;;;;;;9.98;3.60;;;9.80;99.90;;;;;;4980029;28;20076;-41
2023/10/15 00:28:09;;;;;;;7.60;3.70;;;9.70;99.90;;;;;;4979955;28;20070;-39
2023/10/15 00:30:39;;;;;;;9.65;3.90;;;9.70;99.90;;;;;;4983283;28;20088;-39
2023/10/15 00:33:11;;;;;;;7.20;3.70;;;9.60;99.90;;;;;;4978737;28;20577;-43
2023/10/15 00:35:44;;;;;;;7.95;3.78;;;9.50;99.90;;;;;;4979636;28;20050;-39
2023/10/15 00:38:16;;;;;;;9.32;3.78;;;9.40;99.90;;;;;;4981476;28;20038;-40
2023/10/15 00:40:51;;;;;;;7.82;3.58;;;9.40;99.90;;;;;;4982737;28;20059;-41
2023/10/15 00:43:21;;;;;;;7.65;3.92;;;9.30;99.90;;;;;;4981996;28;20043;-39
2023/10/15 00:45:49;;;;;;;10.55;3.97;;;9.30;99.90;;;;;;4988678;28;20050;-41
2023/10/15 00:48:33;;;;;;;8.93;3.63;;;9.20;99.90;;;;;;4985543;28;20460;-41
2023/10/15 00:51:11;;;;;;;6.85;3.63;;;9.20;99.90;;;;;;4964643;28;20062;-41
2023/10/15 00:53:54;;;;;;;7.45;3.60;;;9.10;99.90;;;;;;4978527;28;20856;-41
2023/10/15 00:56:35;;;;;;;9.07;4.00;;;9.10;99.90;;;;;;4981732;28;20508;-41
2023/10/15 01:01:42;;;;;;;12.20;3.60;;;8.90;99.90;;;;;;4973974;28;20035;-41
2023/10/15 01:04:10;;;;;;;6.57;3.65;;;8.80;99.90;;;;;;4972925;28;20142;-42
2023/10/15 01:06:44;;;;;;;8.80;3.78;;;8.80;99.90;;;;;;4981599;28;20053;-41
2023/10/15 01:09:29;;;;;;;11.57;3.42;;;8.80;99.90;;;;;;4977483;28;20133;-40
2023/10/15 01:11:58;;;;;;;8.63;3.78;;;8.70;99.90;;;;;;4983764;28;20461;-39
2023/10/15 01:14:32;;;;;;;7.53;3.33;;;8.60;99.90;;;;;;4963593;28;20055;-41
2023/10/15 01:17:01;;;;;;;9.30;3.70;;;8.60;99.90;;;;;;4962701;28;20074;-42
2023/10/15 01:19:33;;;;;;;10.73;3.78;;;8.50;99.90;;;;;;4980744;28;20054;-41
2023/10/15 01:22:02;;;;;;;7.20;3.60;;;8.50;99.90;;;;;;4977363;28;20066;-40
2023/10/15 01:24:36;;;;;;;7.35;3.75;;;8.50;99.90;;;;;;4968660;28;20077;-40
2023/10/15 01:27:13;;;;;;;10.88;3.72;;;8.50;99.90;;;;;;4975007;28;20424;-41
2023/10/15 01:29:48;;;;;;;9.27;3.72;;;8.40;99.90;;;;;;4977630;28;20050;-41
2023/10/15 01:32:30;;;;;;;11.60;4.90;;;8.30;99.90;;;;;;4964824;28;20065;-41
2023/10/15 01:35:07;;;;;;;11.18;4.03;;;8.20;99.90;;;;;;4979144;28;20058;-40
2023/10/15 01:37:37;;;;;;;9.55;3.50;;;8.20;99.90;;;;;;4983647;28;20550;-41
2023/10/15 01:40:37;;;;;;;17.77;4.03;;;8.10;99.90;;;;;;4976767;28;20055;-39
2023/10/15 01:42:54;;;;;;;9.38;3.70;;;8.20;99.90;;;;;;4975769;28;20150;-41
2023/10/15 01:45:31;;;;;;;7.65;3.50;;;8.20;99.90;;;;;;4983068;28;20050;-42
2023/10/15 01:48:13;;;;;;;10.30;3.55;;;8.10;99.90;;;;;;4961349;28;20138;-40
2023/10/15 01:50:49;;;;;;;7.57;3.88;;;8.10;99.90;;;;;;4982733;28;20073;-40
2023/10/15 01:53:24;;;;;;;8.60;4.00;;;8.00;99.90;;;;;;4989183;28;20209;-41
2023/10/15 01:55:59;;;;;;;9.52;3.65;;;8.00;99.90;;;;;;4982576;28;20043;-39
2023/10/15 01:58:32;;;;;;;9.05;4.03;;;8.00;99.90;;;;;;4967716;28;20106;-42
2023/10/15 02:01:20;;;;;;;7.07;3.50;;;8.00;99.90;;;;;;4959215;28;20059;-41
2023/10/15 02:03:48;;;;;;;10.32;4.22;;;8.00;99.90;;;;;;4979107;28;20074;-40
2023/10/15 02:06:19;;;;;;;13.48;3.90;;;8.00;99.90;;;;;;4981775;28;20047;-41
2023/10/15 02:08:51;;;;;;;12.40;4.00;;;7.90;99.90;;;;;;4962134;28;20501;-41
2023/10/15 02:11:22;;;;;;;7.32;3.88;;;7.90;99.90;;;;;;4960623;28;20057;-41
2023/10/15 02:13:51;;;;;;;9.15;4.28;;;7.80;99.90;;;;;;4962602;28;20054;-37
2023/10/15 02:16:29;;;;;;;14.82;4.32;;;7.80;99.90;;;;;;4981215;28;20058;-39
2023/10/15 02:18:58;;;;;;;7.97;3.72;;;7.80;99.90;;;;;;4979836;28;20142;-40
2023/10/15 02:21:31;;;;;;;13.02;4.45;;;7.70;99.90;;;;;;4990467;28;20058;-41
2023/10/15 02:24:08;;;;;;;11.57;4.63;;;7.70;99.90;;;;;;4990687;28;20122;-42
2023/10/15 02:26:36;;;;;;;10.55;4.72;;;7.60;99.90;;;;;;4992125;28;20043;-40
2023/10/15 02:29:38;;;;;;;14.48;4.75;;;7.60;99.90;;;;;;4988884;28;20054;-41
2023/10/15 02:31:58;;;;;;;10.50;4.90;;;7.60;99.90;;;;;;4960004;28;20118;-42
2023/10/15 02:34:27;;;;;;;11.82;4.53;;;7.60;99.90;;;;;;4972377;28;20054;-40
2023/10/15 02:37:02;;;;;;;10.85;5.35;;;7.50;99.90;;;;;;4953283;28;20507;-41
2023/10/15 02:39:36;;;;;;;11.05;4.72;;;7.50;99.90;;;;;;4979550;28;20570;-40
2023/10/15 02:42:04;;;;;;;9.77;4.88;;;7.50;99.90;;;;;;4963012;28;20052;-40
2023/10/15 02:44:34;;;;;;;9.40;4.30;;;7.50;99.90;;;;;;4976609;28;20126;-40
2023/10/15 02:47:19;;;;;;;10.63;4.53;;;7.40;99.90;;;;;;4972745;28;20113;-39
2023/10/15 02:49:52;;;;;;;11.70;4.47;;;7.40;99.90;;;;;;4974782;28;20128;-41
2023/10/15 02:52:23;;;;;;;10.60;4.32;;;7.30;99.90;;;;;;4969947;28;20062;-40
2023/10/15 02:54:50;;;;;;;11.95;4.45;;;7.30;99.90;;;;;;4972780;28;20681;-41
2023/10/15 02:57:18;;;;;;;9.85;4.53;;;7.30;99.90;;;;;;4954648;28;20073;-41
2023/10/15 02:59:52;;;;;;;10.20;4.55;;;7.20;99.90;;;;;;4955376;28;20130;-41
2023/10/15 03:02:20;;;;;;;8.32;5.00;;;7.20;99.90;;;;;;4972867;28;20471;-40
2023/10/15 03:04:54;;;;;;;12.68;4.82;;;7.20;99.90;;;;;;4971553;28;20461;-41
2023/10/15 03:07:31;;;;;;;10.20;4.70;;;7.20;99.90;;;;;;4989087;28;20055;-39
2023/10/15 03:09:58;;;;;;;9.05;4.75;;;7.20;99.90;;;;;;4970953;28;20109;-47
2023/10/15 03:12:27;;;;;;;9.80;4.38;;;7.20;99.90;;;;;;4970270;28;20125;-39
2023/10/15 03:14:55;;;;;;;22.08;5.05;;;7.10;99.90;;;;;;4962387;28;20054;-40
2023/10/15 03:17:29;;;;;;;10.35;5.05;;;7.10;99.90;;;;;;4971342;28;20563;-40
2023/10/15 03:20:11;;;;;;;8.60;4.40;;;7.10;99.90;;;;;;4960705;28;20055;-41
2023/10/15 03:22:38;;;;;;;10.52;4.80;;;7.00;99.90;;;;;;4960817;28;20045;-40
2023/10/15 03:25:12;;;;;;;8.63;4.30;;;7.00;99.90;;;;;;4969289;28;20097;-40
2023/10/15 03:27:41;;;;;;;8.15;4.20;;;7.00;99.90;;;;;;4967755;28;20122;-41
2023/10/15 03:30:11;;;;;;;12.13;5.70;;;6.90;99.90;;;;;;4960577;28;20045;-39
2023/10/15 03:32:41;;;;;;;8.18;4.32;;;6.90;99.90;;;;;;4969517;28;20077;-41
2023/10/15 03:35:16;;;;;;;11.82;4.68;;;6.90;99.90;;;;;;4968755;28;20059;-40
2023/10/15 03:37:47;;;;;;;8.35;4.82;;;6.80;99.90;;;;;;4968844;28;20073;-40
2023/10/15 03:40:32;;;;;;;9.52;4.47;;;6.80;99.90;;;;;;4968393;28;20047;-41
2023/10/15 03:46:10;;;;;;;15.18;4.53;;;6.80;99.90;;;;;;4961195;28;20049;-39
2023/10/15 03:48:47;;;;;;;11.00;4.47;;;6.70;99.90;;;;;;4971260;28;20043;-40
2023/10/15 03:51:20;;;;;;;8.80;4.40;;;6.70;99.90;;;;;;4970076;28;20133;-38
2023/10/15 03:53:50;;;;;;;13.27;4.88;;;6.70;99.90;;;;;;4960324;28;20467;-41
2023/10/15 03:56:19;;;;;;;9.88;4.57;;;6.70;99.90;;;;;;4970870;28;20464;-40
2023/10/15 03:58:46;;;;;;;10.40;4.38;;;6.80;99.90;;;;;;4971848;28;20535;-40
2023/10/15 04:03:47;;;;;;;7.90;4.10;;;6.80;99.90;;;;;;4972308;28;20042;-40
2023/10/15 04:06:17;;;;;;;10.23;4.50;;;6.80;99.90;;;;;;4970092;28;20522;-40
2023/10/15 04:11:45;;;;;;;11.60;4.60;;;6.80;99.90;;;;;;4970731;28;20066;-41
2023/10/15 04:14:15;;;;;;;11.57;4.53;;;6.80;99.90;;;;;;4966071;28;20058;-41
2023/10/15 04:16:44;;;;;;;8.80;4.70;;;6.90;99.90;;;;;;4970776;28;20294;-41
2023/10/15 04:19:12;;;;;;;9.95;4.50;;;6.90;99.90;;;;;;4973878;28;20263;-41
2023/10/15 04:21:39;;;;;;;14.10;4.95;;;6.90;99.90;;;;;;4973611;28;20089;-41
2023/10/15 04:24:07;;;;;;;14.15;4.55;;;7.00;99.90;;;;;;4970112;28;20502;-40
2023/10/15 04:26:42;;;;;;;17.48;5.35;;;7.00;99.90;;;;;;4969049;28;20050;-41
2023/10/15 04:29:20;;;;;;;10.55;4.30;;;7.00;99.90;;;;;;4952889;28;20102;-41
2023/10/15 04:31:59;;;;;;;12.60;4.78;;;7.00;99.90;;;;;;4970046;28;20137;-40
2023/10/15 04:34:29;;;;;;;12.40;4.50;;;7.00;99.90;;;;;;4968666;28;20062;-42
2023/10/15 04:36:57;;;;;;;10.25;5.05;;;7.00;99.90;;;;;;4975655;28;20055;-41
2023/10/15 04:39:24;;;;;;;10.32;4.72;;;7.00;99.90;;;;;;4971315;28;20058;-40
2023/10/15 04:42:20;;;;;;;11.75;4.65;;;7.00;99.90;;;;;;4973386;28;20138;-41
2023/10/15 04:44:50;;;;;;;8.80;4.03;;;6.90;99.90;;;;;;4974127;28;20051;-41
2023/10/15 04:47:41;;;;;;;10.52;4.20;;;6.90;99.90;;;;;;4965709;28;20503;-43
2023/10/15 04:50:14;;;;;;;6.80;3.97;;;6.80;99.90;;;;;;4978248;28;20097;-39
2023/10/15 04:52:43;;;;;;;10.57;4.22;;;6.80;99.90;;;;;;4985790;28;20061;-41
2023/10/15 04:55:13;;;;;;;7.97;4.43;;;6.80;99.90;;;;;;4983556;28;20054;-43
2023/10/15 04:57:40;;;;;;;11.93;4.45;;;6.90;99.90;;;;;;4984422;28;20535;-40
2023/10/15 05:00:08;;;;;;;10.65;5.25;;;6.80;99.90;;;;;;4984938;28;20059;-40
2023/10/15 05:02:35;;;;;;;12.38;4.60;;;6.90;99.90;;;;;;4979260;28;20106;-41
2023/10/15 05:05:06;;;;;;;12.60;4.45;;;6.80;99.90;;;;;;4985027;28;20134;-41
2023/10/15 05:07:36;;;;;;;8.80;4.57;;;6.90;99.90;;;;;;4982629;28;20057;-41
2023/10/15 05:10:03;;;;;;;10.20;4.18;;;6.80;99.90;;;;;;4981719;28;20070;-42
2023/10/15 05:12:31;;;;;;;11.68;4.05;;;6.80;99.90;;;;;;4985460;28;20060;-41
2023/10/15 05:14:58;;;;;;;9.75;4.25;;;6.80;99.90;;;;;;4984123;28;20063;-41
2023/10/15 05:17:26;;;;;;;7.72;4.30;;;6.90;99.90;;;;;;4972275;28;20067;-41
2023/10/15 05:19:53;;;;;;;10.10;4.10;;;7.00;99.90;;;;;;4975748;28;20050;-39
2023/10/15 05:22:21;;;;;;;10.85;4.18;;;7.00;99.90;;;;;;4974738;28;20035;-40
2023/10/15 05:24:48;;;;;;;9.68;4.32;;;6.90;99.90;;;;;;4969772;28;20528;-40
2023/10/15 05:27:16;;;;;;;11.27;4.15;;;7.00;99.90;;;;;;4974649;28;20066;-42
2023/10/15 05:29:43;;;;;;;11.43;4.47;;;7.00;99.90;;;;;;4973329;28;20047;-43
2023/10/15 05:32:10;;;;;;;9.95;4.20;;;7.00;99.90;;;;;;4983698;28;20046;-42
2023/10/15 05:34:38;;;;;;;9.65;3.95;;;6.90;99.90;;;;;;4975384;28;20634;-40
2023/10/15 05:37:05;;;;;;;10.95;4.60;;;7.00;99.90;;;;;;4982073;28;20495;-40
2023/10/15 05:39:32;;;;;;;9.55;4.22;;;7.00;99.90;;;;;;4984857;28;20133;-41
2023/10/15 05:41:59;;;;;;;11.50;4.20;;;7.00;99.90;;;;;;4977830;28;20073;-41
2023/10/15 05:44:27;;;;;;;13.30;4.45;;;7.00;99.90;;;;;;4970335;28;20077;-40
2023/10/15 05:46:54;;;;;;;9.20;4.50;;;6.90;99.90;;;;;;4960181;28;20125;-40
2023/10/15 05:49:22;;;;;;;18.02;4.40;;;7.00;99.90;;;;;;4976339;28;20043;-41
2023/10/15 05:51:51;;;;;;;7.47;4.22;;;6.90;99.90;;;;;;4990891;28;20098;-41
2023/10/15 05:54:19;;;;;;;9.25;3.85;;;7.00;99.90;;;;;;4979631;28;20467;-46
2023/10/15 05:56:46;;;;;;;11.07;4.30;;;7.10;99.90;;;;;;4979861;28;20405;-43
2023/10/15 05:59:14;;;;;;;10.73;4.25;;;7.20;99.90;;;;;;4980113;28;20054;-41
2023/10/15 06:01:42;;;;;;;18.38;4.78;;;7.20;99.90;;;;;;4961532;28;20074;-40
2023/10/15 06:04:09;;;;;;;10.55;3.88;;;7.20;99.90;;;;;;4982677;28;20053;-38
2023/10/15 06:06:36;;;;;;;8.30;4.07;;;7.30;99.90;;;;;;4981321;28;20141;-42
2023/10/15 06:09:05;;;;;;;9.00;4.20;;;7.30;99.90;;;;;;4978538;28;20043;-40
2023/10/15 06:11:32;;;;;;;9.18;4.63;;;7.30;99.90;;;;;;4964421;28;20051;-42
2023/10/15 06:14:04;;;;;;;8.20;3.80;;;7.30;99.90;;;;;;4980025;28;20053;-41
2023/10/15 06:16:31;;;;;;;8.35;4.25;;;7.40;99.90;;;;;;4976990;28;20514;-41
2023/10/15 06:18:59;;;;;;;9.75;4.40;;;7.50;99.90;;;;;;4977397;28;20053;-40
2023/10/15 06:21:26;;;;;;;11.80;4.20;;;7.50;99.90;;;;;;4978891;28;20117;-40
2023/10/15 06:23:53;;;;;;;8.80;4.03;;;7.40;99.90;;;;;;4974234;28;20078;-40
2023/10/15 06:26:21;;;;;;;11.15;4.45;;;7.40;99.90;;;;;;4960660;28;20050;-41
2023/10/15 06:28:49;;;;;;;9.95;4.05;;;7.40;99.90;;;;;;4973838;28;20118;-41
2023/10/15 06:31:16;;;;;;;10.15;3.88;;;7.40;99.90;;;;;;4973494;28;20055;-41
2023/10/15 06:33:44;;;;;;;9.05;4.05;;;7.40;99.90;;;;;;4974886;28;20086;-42
2023/10/15 06:36:11;;;;;;;10.30;3.80;;;7.40;99.90;;;;;;4974861;28;20046;-41
2023/10/15 06:38:38;;;;;;;8.43;3.60;;;7.50;99.90;;;;;;4977943;28;20046;-41
2023/10/15 06:41:09;;;;;;;9.63;3.92;;;7.50;99.90;;;;;;4975925;28;20047;-41
2023/10/15 06:43:37;;;;;;;10.13;3.75;;;7.50;99.90;;;;;;4973483;28;20397;-41
2023/10/15 06:46:07;;;;;;;9.30;3.80;;;7.60;99.90;;;;;;4972706;28;20053;-41
2023/10/15 06:48:35;;;;;;;9.45;4.10;;;7.70;99.90;;;;;;4973190;28;20039;-41
2023/10/15 06:51:04;;;;;;;8.52;3.53;;;7.60;99.90;;;;;;4980439;28;20081;-42
2023/10/15 06:53:32;;;;;;;7.80;4.22;;;7.70;99.90;;;;;;4973173;28;20049;-41
2023/10/15 06:55:59;;;;;;;9.93;3.20;;;7.80;99.90;;;;;;4978447;28;20061;-41
2023/10/15 06:58:28;;;;;;;10.27;3.83;;;7.80;99.90;;;;;;4981260;28;20393;-38
2023/10/15 07:00:56;;;;;;;9.23;3.83;;;8.00;99.90;;;;;;4976942;28;20078;-42
2023/10/15 07:03:24;;;;;;;8.88;3.55;;;8.00;99.90;;;;;;4973967;28;20054;-42
2023/10/15 07:05:51;;;;;;;8.57;4.57;;;8.10;99.90;;;;;;4974943;28;20484;-40
2023/10/15 07:08:18;;;;;;;11.45;3.88;;;8.30;99.90;;;;;;4971324;28;20038;-41
2023/10/15 07:10:46;;;;;;;7.60;3.85;;;8.30;99.90;;;;;;4972522;28;20066;-42
2023/10/15 07:13:13;;;;;;;11.48;4.05;;;8.40;99.90;;;;;;4970987;28;20050;-42
2023/10/15 07:15:40;;;;;;;7.45;3.50;;;8.50;99.90;;;;;;4976381;28;20039;-41
2023/10/15 07:18:08;;;;;;;10.23;4.30;;;8.50;99.90;;;;;;4967904;28;20129;-41
2023/10/15 07:20:36;;;;;;;9.77;3.80;;;8.50;99.90;;;;;;4971160;28;20500;-41
2023/10/15 07:23:04;;;;;;;9.25;4.25;;;8.50;99.90;;;;;;4968392;28;20204;-42
2023/10/15 07:25:32;;;;;;;10.77;3.90;;;8.60;99.90;;;;;;4969483;28;20384;-43
2023/10/15 07:28:00;;;;;;;8.48;3.78;;;8.60;99.90;;;;;;4975932;28;20102;-41
2023/10/15 07:30:28;;;;;;;7.10;3.35;;;8.70;99.90;;;;;;4969268;28;20054;-42
2023/10/15 07:32:58;;;;;;;9.23;4.15;;;8.80;99.90;;;;;;4983609;28;20050;-42
2023/10/15 07:35:28;;;;;;;8.13;3.42;;;8.70;99.90;;;;;;4974134;28;20050;-41
2023/10/15 07:37:56;;;;;;;10.68;3.53;;;8.80;99.90;;;;;;4977466;28;20051;-43
2023/10/15 07:40:26;;;;;;;12.25;3.80;;;8.90;99.90;;;;;;4973506;28;20090;-41
2023/10/15 07:42:58;;;;;;;10.80;4.30;;;8.90;99.90;;;;;;4974802;28;20523;-42
2023/10/15 07:45:29;;;;;;;10.57;4.18;;;9.00;99.90;;;;;;4971304;28;20050;-40
2023/10/15 07:48:01;;;;;;;6.97;3.53;;;9.10;99.90;;;;;;4981663;28;20054;-41
2023/10/15 07:50:34;;;;;;;10.77;4.78;;;9.20;99.90;;;;;;4981627;28;20055;-39
2023/10/15 07:53:03;;;;;;;10.05;3.78;;;9.20;99.90;;;;;;4979231;28;20126;-43
2023/10/15 07:55:31;;;;;;;8.32;3.72;;;9.30;99.90;;;;;;4990611;28;20483;-41
2023/10/15 07:57:58;;;;;;;9.68;3.83;;;9.30;99.90;;;;;;4974923;28;20055;-42
2023/10/15 08:00:26;;;;;;;9.23;4.38;;;9.40;99.90;;;;;;4971696;28;20088;-40
2023/10/15 08:02:57;;;;;;;7.03;3.83;;;9.50;99.90;;;;;;4972457;28;20051;-41
2023/10/15 08:05:31;;;;;;;9.93;4.03;;;9.70;99.90;;;;;;4970767;28;20077;-40
2023/10/15 08:08:00;;;;;;;7.05;3.45;;;9.70;99.90;;;;;;4970439;28;20058;-41
2023/10/15 08:10:34;;;;;;;7.57;3.55;;;9.70;99.90;;;;;;4971668;28;20088;-40
2023/10/15 08:13:06;;;;;;;9.85;3.70;;;9.80;99.90;;;;;;4957591;28;20523;-41
2023/10/15 08:15:35;;;;;;;6.82;3.45;;;9.90;99.90;;;;;;4975107;28;20483;-41
2023/10/15 08:18:03;;;;;;;8.20;3.72;;;10.10;99.90;;;;;;4975713;28;20059;-41
2023/10/15 08:20:31;;;;;;;8.93;4.10;;;10.10;99.90;;;;;;4955208;28;20051;-42
2023/10/15 08:23:00;;;;;;;7.47;3.30;;;10.00;99.90;;;;;;4974700;28;20051;-41
2023/10/15 08:25:28;;;;;;;8.20;4.15;;;9.90;99.90;;;;;;4983895;28;20107;-41
2023/10/15 08:27:55;;;;;;;12.30;4.65;;;9.80;99.90;;;;;;4975283;28;20145;-40
2023/10/15 08:30:22;;;;;;;8.57;3.45;;;9.80;99.90;;;;;;4975765;28;20165;-43
2023/10/15 08:32:50;;;;;;;7.68;3.90;;;9.90;99.90;;;;;;4977355;28;20054;-42
2023/10/15 08:35:17;;;;;;;10.18;4.28;;;10.10;99.90;;;;;;4978104;28;20097;-42
2023/10/15 08:37:45;;;;;;;10.00;4.00;;;10.10;99.90;;;;;;4983492;28;20045;-42
2023/10/15 08:40:17;;;;;;;8.98;3.92;;;10.10;99.90;;;;;;4985796;28;20133;-41
2023/10/15 08:43:01;;;;;;;11.35;4.40;;;9.90;99.90;;;;;;4972684;28;20389;-42
2023/10/15 08:45:29;;;;;;;11.65;4.45;;;9.80;99.90;;;;;;4974045;28;20049;-41
2023/10/15 08:48:01;;;;;;;12.73;4.68;;;9.60;99.90;;;;;;4953940;28;20074;-43
2023/10/15 08:50:29;;;;;;;7.05;3.67;;;9.50;99.90;;;;;;4973228;28;20581;-41
2023/10/15 08:52:59;;;;;;;11.18;4.45;;;9.40;99.90;;;;;;4976023;28;20500;-40
2023/10/15 08:55:27;;;;;;;10.85;4.00;;;9.50;99.90;;;;;;4975299;28;20039;-39
2023/10/15 08:57:54;;;;;;;10.30;4.10;;;9.60;99.90;;;;;;4975108;28;20047;-41
2023/10/15 09:00:26;;;;;;;13.70;4.63;;;9.80;99.90;;;;;;4974797;28;20404;-43
2023/10/15 09:03:02;;;;;;;9.82;4.18;;;9.90;99.90;;;;;;4976818;28;20105;-40
2023/10/15 09:05:33;;;;;;;10.05;4.22;;;10.00;99.90;;;;;;4979167;28;20064;-42
2023/10/15 09:08:09;;;;;;;11.57;4.18;;;10.10;99.90;;;;;;4980118;28;20042;-42
2023/10/15 09:10:40;;;;;;;7.65;4.20;;;10.20;99.90;;;;;;4969267;28;20130;-41
2023/10/15 09:13:15;;;;;;;8.77;3.42;;;10.20;99.90;;;;;;4973929;28;20461;-41
2023/10/15 09:15:49;;;;;;;11.57;3.95;;;10.10;99.90;;;;;;4973445;28;20074;-44
2023/10/15 09:18:16;;;;;;;19.17;4.72;;;10.20;99.90;;;;;;4956572;28;20400;-42
2023/10/15 09:20:50;;;;;;;9.18;4.00;;;10.30;99.90;;;;;;4974004;28;20078;-43
2023/10/15 09:23:22;;;;;;;9.27;3.90;;;10.60;99.90;;;;;;4968732;28;20057;-41
2023/10/15 09:25:55;;;;;;;9.15;4.15;;;10.60;99.90;;;;;;4973896;28;20515;-43
2023/10/15 09:28:30;;;;;;;12.50;4.40;;;10.60;99.90;;;;;;4971534;28;20043;-42
2023/10/15 09:31:11;;;;;;;9.00;3.63;;;10.70;99.90;;;;;;4974165;28;20153;-49
2023/10/15 09:33:39;;;;;;;9.18;3.30;;;10.80;99.90;;;;;;4978137;28;20058;-43
2023/10/15 09:36:07;;;;;;;10.02;4.32;;;11.00;99.90;;;;;;4979995;28;20074;-42
2023/10/15 09:38:35;;;;;;;9.10;3.60;;;11.10;99.90;;;;;;4981821;28;20046;-42
2023/10/15 09:41:05;;;;;;;7.53;3.92;;;11.20;99.90;;;;;;4978235;28;20043;-42
2023/10/15 09:43:36;;;;;;;6.30;3.42;;;11.50;99.90;;;;;;4975646;28;20081;-39
2023/10/15 09:46:06;;;;;;;8.18;3.58;;;11.80;99.90;;;;;;4986729;28;20073;-43
2023/10/15 09:48:36;;;;;;;9.63;3.83;;;11.90;99.90;;;;;;4976858;28;20034;-43
2023/10/15 09:51:07;;;;;;;7.25;4.30;;;12.00;99.90;;;;;;4979336;28;20035;-43
2023/10/15 09:53:35;;;;;;;6.55;3.40;;;12.00;99.90;;;;;;4966144;28;20053;-42
2023/10/15 09:56:12;;;;;;;8.20;3.63;;;11.90;99.90;;;;;;4962356;28;20059;-39
2023/10/15 09:58:40;;;;;;;7.00;3.53;;;11.80;99.90;;;;;;4964692;28;20418;-40
2023/10/15 10:01:25;;;;;;;5.53;3.30;;;11.80;99.90;;;;;;4974113;28;20455;-41
2023/10/15 10:04:16;;;;;;;10.15;3.28;;;11.60;99.90;;;;;;4973740;28;20423;-44
2023/10/15 10:07:01;;;;;;;8.43;3.40;;;11.80;99.90;;;;;;4972723;28;20492;-39
2023/10/15 10:10:18;;;;;;;6.30;2.92;;;11.90;99.90;;;;;;4976323;28;20077;-42
2023/10/15 10:13:13;;;;;;;8.70;3.97;;;12.40;99.90;;;;;;4903441;29;20233;-43
2023/10/15 10:15:57;;;;;;;8.20;3.47;;;12.90;99.90;;;;;;4880622;29;20569;-42
2023/10/15 10:18:27;;;;;;;7.15;3.60;;;13.10;99.90;;;;;;4896216;29;20069;-43
2023/10/15 10:20:56;;;;;;;7.15;3.67;;;13.00;99.90;;;;;;4902757;29;20055;-42
2023/10/15 10:23:23;;;;;;;11.60;4.03;;;13.30;99.90;;;;;;4892332;29;20049;-47
2023/10/15 10:26:12;;;;;;;7.13;3.20;;;13.50;99.90;;;;;;4890606;29;20084;-42
2023/10/15 10:28:40;;;;;;;8.02;3.38;;;13.60;99.90;;;;;;4895290;29;20313;-43
2023/10/15 10:31:08;;;;;;;9.30;3.80;;;13.30;99.90;;;;;;4892536;29;20104;-42
2023/10/15 10:33:41;;;;;;;5.93;3.38;;;13.30;99.90;;;;;;4896391;29;20052;-43
2023/10/15 10:36:19;;;;;;;6.45;3.60;;;13.40;99.90;;;;;;4898511;29;20060;-41
2023/10/15 10:39:18;;;;;;;8.73;3.38;;;12.70;99.90;;;;;;4896245;29;20660;-42
2023/10/15 10:41:49;;;;;;;9.80;3.75;;;12.20;99.90;;;;;;4909450;29;20086;-40
2023/10/15 10:44:23;;;;;;;7.32;3.60;;;11.70;99.90;;;;;;4954380;28;20046;-41
2023/10/15 10:46:57;;;;;;;8.63;3.88;;;11.10;99.90;;;;;;4957834;28;20128;-36
2023/10/15 10:49:41;;;;;;;6.50;3.25;;;10.90;99.90;;;;;;4973441;28;20050;-35
2023/10/15 10:52:17;;;;;;;5.88;3.20;;;10.80;99.90;;;;;;4978694;28;20084;-37
2023/10/15 10:54:45;;;;;;;4.32;2.80;;;10.90;99.90;;;;;;4979688;28;20043;-37
2023/10/15 10:57:18;;;;;;;6.95;3.25;;;10.80;99.90;;;;;;4984208;28;20055;-36
2023/10/15 10:59:46;;;;;;;6.25;3.40;;;10.90;99.90;;;;;;4978098;28;20054;-39
2023/10/15 11:02:14;;;;;;;6.97;2.75;;;10.80;99.90;;;;;;4986873;28;20070;-37
2023/10/15 11:04:42;;;;;;;5.68;3.25;;;11.20;99.90;;;;;;4983677;28;20038;-40
2023/10/15 11:07:11;;;;;;;6.95;3.38;;;11.60;99.90;;;;;;4998022;28;20114;-40
2023/10/15 11:09:38;;;;;;;7.28;3.15;;;12.30;99.90;;;;;;4980177;28;20057;-39
2023/10/15 11:12:09;;;;;;;9.40;3.70;;;13.00;99.90;;;;;;4985647;28;20046;-38
2023/10/15 11:14:37;;;;;;;5.93;3.13;;;13.30;99.90;;;;;;4981428;28;20143;-40
2023/10/15 11:17:06;;;;;;;6.00;3.45;;;13.70;99.90;;;;;;4982429;28;20078;-39
2023/10/15 11:19:33;;;;;;;6.07;3.42;;;13.90;99.90;;;;;;4972120;28;20043;-36
2023/10/15 11:22:01;;;;;;;8.23;3.42;;;14.20;99.90;;;;;;4969568;28;20069;-41
2023/10/15 11:24:28;;;;;;;7.28;3.30;;;14.10;99.90;;;;;;4972022;28;20492;-39
2023/10/15 11:26:56;;;;;;;5.55;3.30;;;13.90;99.90;;;;;;4974414;28;20516;-39
2023/10/15 11:29:24;;;;;;;7.28;3.80;;;13.30;99.90;;;;;;4975609;28;20047;-39
2023/10/15 11:31:57;;;;;;;8.40;3.83;;;12.90;99.90;;;;;;4971815;28;20054;-37
2023/10/15 11:34:27;;;;;;;6.53;3.92;;;12.60;99.90;;;;;;4971743;28;20512;-40
2023/10/15 11:36:56;;;;;;;5.87;3.57;;;12.50;99.90;;;;;;4970925;28;20073;-40
2023/10/15 11:39:38;;;;;;;7.50;3.95;;;12.30;99.90;;;;;;4972586;28;20059;-38
2023/10/15 11:42:10;;;;;;;7.45;4.20;;;12.40;99.90;;;;;;4963937;28;20081;-39
2023/10/15 11:44:42;;;;;;;5.70;4.00;;;12.40;99.90;;;;;;4967174;28;20075;-37
2023/10/15 11:47:12;;;;;;;6.28;3.80;;;12.40;99.90;;;;;;4967820;28;20326;-38
2023/10/15 11:49:42;;;;;;;6.93;3.70;;;12.30;99.90;;;;;;4970185;28;20539;-40
2023/10/15 11:52:14;;;;;;;6.80;3.47;;;12.00;99.90;;;;;;4969684;28;20050;-39
2023/10/15 11:54:57;;;;;;;6.20;3.38;;;11.60;99.90;;;;;;4963316;28;20081;-35
2023/10/15 11:57:26;;;;;;;4.53;3.42;;;11.20;99.90;;;;;;4970713;28;20081;-38
2023/10/15 11:59:54;;;;;;;4.38;3.22;;;11.00;99.90;;;;;;4974279;28;20062;-39
2023/10/15 12:02:25;;;;;;;5.40;3.30;;;10.50;99.90;;;;;;4977407;28;20511;-45
2023/10/15 12:04:56;;;;;;;6.18;3.42;;;10.20;99.90;;;;;;4972743;28;20940;-39
2023/10/15 12:07:28;;;;;;;4.60;3.47;;;10.20;99.90;;;;;;4972983;28;20051;-38
2023/10/15 12:09:57;;;;;;;4.50;3.22;;;10.40;99.90;;;;;;4971927;28;20060;-40
2023/10/15 12:12:26;;;;;;;4.65;3.47;;;10.40;99.90;;;;;;4975886;28;20054;-38
2023/10/15 12:14:54;;;;;;;5.80;3.00;;;10.30;99.90;;;;;;4971734;28;20062;-39
2023/10/15 12:17:21;;;;;;;4.35;3.10;;;10.40;99.90;;;;;;4974045;28;20153;-39
2023/10/15 12:19:48;;;;;;;6.05;3.40;;;10.60;99.90;;;;;;4972664;28;20050;-39
2023/10/15 12:22:35;;;;;;;5.13;3.50;;;10.60;99.90;;;;;;4972665;28;20460;-36
2023/10/15 12:25:03;;;;;;;4.03;3.10;;;10.70;99.90;;;;;;4973860;28;20535;-36
2023/10/15 12:27:31;;;;;;;6.68;3.92;;;10.90;99.90;;;;;;4970960;28;20050;-39
2023/10/15 12:30:06;;;;;;;5.97;3.05;;;11.10;99.90;;;;;;4972283;28;20043;-39
2023/10/15 12:32:34;;;;;;;5.57;3.15;;;12.30;99.90;;;;;;4971474;28;20186;-38
2023/10/15 12:35:13;;;;;;;6.78;3.20;;;14.20;99.90;;;;;;4972586;28;20055;-39
2023/10/15 12:37:40;;;;;;;4.25;2.92;;;16.40;99.90;;;;;;4973138;28;20051;-36
2023/10/15 12:40:21;;;;;;;6.15;3.50;;;17.00;99.90;;;;;;4972250;28;20082;-39
2023/10/15 12:42:51;;;;;;;4.72;3.47;;;17.50;99.90;;;;;;4973256;28;20051;-42
2023/10/15 12:45:19;;;;;;;7.05;4.10;;;18.90;99.90;;;;;;4971936;28;20106;-40
2023/10/15 12:47:48;;;;;;;4.68;3.67;;;18.70;99.90;;;;;;4979932;28;20076;-39
2023/10/15 12:50:15;;;;;;;4.05;3.67;;;18.70;99.90;;;;;;4981483;28;20054;-40
2023/10/15 12:52:47;;;;;;;6.30;3.70;;;19.70;99.30;;;;;;4978425;28;20050;-35
2023/10/15 12:55:18;;;;;;;;;;;19.30;97.20;;;;;;4974733;28;20066;-37
2023/10/15 12:57:47;;;;;;;4.95;3.70;;;16.60;99.90;;;;;;4975631;28;19944;-39
2023/10/15 13:00:17;;;;;;;6.65;4.10;;;14.50;99.90;;;;;;4978812;28;20078;-39
2023/10/15 13:02:50;;;;;;;4.95;3.70;;;13.60;99.90;;;;;;4967718;28;20050;-35
2023/10/15 13:05:24;;;;;;;4.47;3.65;;;13.00;99.90;;;;;;4975040;28;20046;-41
2023/10/15 13:07:53;;;;;;;5.60;4.20;;;12.50;99.90;;;;;;4975572;28;20045;-40
2023/10/15 13:10:22;;;;;;;5.53;3.90;;;12.10;99.90;;;;;;4974819;28;20049;-37
2023/10/15 13:12:51;;;;;;;6.50;3.92;;;11.90;99.90;;;;;;4978742;28;20058;-40
2023/10/15 13:15:19;;;;;;;7.30;4.20;;;11.70;99.90;;;;;;4981645;28;20078;-39
2023/10/15 13:17:54;;;;;;;6.47;4.10;;;11.30;99.90;;;;;;4983515;28;20142;-39
2023/10/15 13:20:24;;;;;;;5.68;3.50;;;11.10;99.90;;;;;;4947251;28;20826;-38
2023/10/15 13:22:56;;;;;;;4.95;3.70;;;11.00;99.90;;;;;;4975571;28;20062;-38